createdAt,value
2022-08-27T00:02:43.063Z,101800.69
2022-08-27T00:08:06.771Z,101791.97
2022-08-27T00:13:31.505Z,101795.72
2022-08-27T00:18:55.955Z,101793.06
2022-08-27T00:24:19.157Z,101789.84
2022-08-27T00:29:43.778Z,101760.63
2022-08-27T00:35:07.924Z,101785.84
2022-08-27T00:40:31.333Z,101779.09
2022-08-27T00:46:02.726Z,101752.28
2022-08-27T00:51:27.282Z,101782.69
2022-08-27T00:56:51.562Z,101781.81
2022-08-27T01:02:26.071Z,101791.47
2022-08-27T01:07:51.690Z,101784.56
2022-08-27T01:13:17.755Z,101790.72
2022-08-27T01:18:44.539Z,101789.75
2022-08-27T01:24:11.115Z,101790.59
2022-08-27T01:29:36.054Z,101787.34
2022-08-27T01:35:00.163Z,101781.88
2022-08-27T01:40:23.591Z,101782.69
2022-08-27T01:45:50.628Z,101785.38
2022-08-27T01:51:13.815Z,101787.16
2022-08-27T01:56:37.009Z,101780.69
2022-08-27T02:02:02.756Z,101768.34
2022-08-27T02:07:26.055Z,101775.22
2022-08-27T02:12:49.537Z,101732.88
2022-08-27T02:18:14.942Z,101741.53
2022-08-27T02:23:38.372Z,101776.44
2022-08-27T02:29:01.559Z,101762.47
2022-08-27T02:34:26.343Z,101761.53
2022-08-27T02:39:49.895Z,101753.94
2022-08-27T02:45:14.163Z,101746.34
2022-08-27T02:50:39.039Z,101758.78
2022-08-27T02:56:02.189Z,101759.97
2022-08-27T03:01:25.734Z,101762.66
2022-08-27T03:06:50.826Z,101744.31
2022-08-27T03:12:14.017Z,101734.16
2022-08-27T03:17:54.873Z,101750.31
2022-08-27T03:23:22.042Z,101718.81
2022-08-27T03:28:46.184Z,101752.09
2022-08-27T03:34:10.245Z,101748.59
2022-08-27T03:39:34.785Z,101723.44
2022-08-27T03:44:58.220Z,101730.97
2022-08-27T03:50:21.690Z,101736.25
2022-08-27T03:55:46.337Z,101737.78
2022-08-27T04:01:10.137Z,101750.44
2022-08-27T04:06:34.916Z,101755.97
2022-08-27T04:11:59.474Z,101744.78
2022-08-27T04:17:22.615Z,101752.41
2022-08-27T04:22:45.848Z,101749.88
2022-08-27T04:28:10.960Z,101754.31
2022-08-27T04:33:34.695Z,101735.09
2022-08-27T04:38:57.812Z,101763.03
2022-08-27T04:44:22.652Z,101769.34
2022-08-27T04:49:45.956Z,101763.38
2022-08-27T04:55:10.768Z,101759.16
2022-08-27T05:00:35.311Z,101742.69
2022-08-27T05:06:02.274Z,101762.78
2022-08-27T05:11:29.648Z,101777.78
2022-08-27T05:16:54.200Z,101777.06
2022-08-27T05:22:17.372Z,101773.63
2022-08-27T05:27:40.515Z,101774.34
2022-08-27T05:33:05.066Z,101770.84
2022-08-27T05:38:30.424Z,101778.59
2022-08-27T05:43:54.231Z,101782.72
2022-08-27T05:49:18.915Z,101787.75
2022-08-27T05:54:42.128Z,101783.22
2022-08-27T06:00:24.686Z,101786.56
2022-08-27T06:05:49.530Z,101782.00
2022-08-27T06:11:13.064Z,101775.53
2022-08-27T06:16:37.032Z,101768.94
2022-08-27T06:22:09.880Z,101768.78
2022-08-27T06:27:33.879Z,101775.91
2022-08-27T06:32:57.064Z,101781.34
2022-08-27T06:38:21.635Z,101777.31
2022-08-27T06:43:44.948Z,101775.19
2022-08-27T06:49:08.617Z,101781.53
2022-08-27T06:54:33.533Z,101778.16
2022-08-27T06:59:56.998Z,101777.31
2022-08-27T07:05:20.314Z,101774.59
2022-08-27T07:10:44.864Z,101781.16
2022-08-27T07:16:09.944Z,101781.50
2022-08-27T07:21:34.715Z,101773.34
2022-08-27T07:26:59.336Z,101793.75
2022-08-27T07:32:22.553Z,101796.16
2022-08-27T07:37:53.799Z,101777.28
2022-08-27T07:43:36.187Z,101807.34
2022-08-27T07:48:59.416Z,101805.16
2022-08-27T07:54:23.753Z,101816.81
2022-08-27T07:59:50.159Z,101806.28
2022-08-27T08:05:14.126Z,101809.31
2022-08-27T08:10:37.838Z,101819.22
2022-08-27T08:16:02.421Z,101824.84
2022-08-27T08:21:25.594Z,101824.00
2022-08-27T08:26:48.850Z,101833.47
2022-08-27T08:32:13.426Z,101834.75
2022-08-27T08:37:37.893Z,101831.09
2022-08-27T08:43:01.834Z,101827.34
2022-08-27T08:48:29.593Z,101836.03
2022-08-27T08:53:54.833Z,101832.75
2022-08-27T08:59:21.617Z,101829.09
2022-08-27T09:04:46.204Z,101838.38
2022-08-27T09:10:15.901Z,101845.50
2022-08-27T09:15:39.257Z,101840.19
2022-08-27T09:21:09.955Z,101852.63
2022-08-27T09:26:37.185Z,101857.16
2022-08-27T09:32:02.308Z,101851.31
2022-08-27T09:37:34.130Z,101846.31
2022-08-27T09:42:59.569Z,101842.22
2022-08-27T09:48:26.326Z,101842.34
2022-08-27T09:53:53.418Z,101834.78
2022-08-27T09:59:23.306Z,101836.88
2022-08-27T10:04:50.369Z,101833.50
2022-08-27T10:10:20.998Z,101826.47
2022-08-27T10:15:54.034Z,101827.47
2022-08-27T10:21:22.696Z,101811.81
2022-08-27T10:26:55.588Z,101801.88
2022-08-27T10:32:29.872Z,101798.97
2022-08-27T10:38:01.538Z,101810.19
2022-08-27T10:43:38.359Z,101807.97
2022-08-27T10:49:06.067Z,101822.41
2022-08-27T10:54:33.714Z,101834.41
2022-08-27T11:00:06.138Z,101824.28
2022-08-27T11:05:32.158Z,101835.47
2022-08-27T11:11:11.738Z,101815.13
2022-08-27T11:16:48.028Z,101809.38
2022-08-27T11:22:26.174Z,101808.13
2022-08-27T11:27:51.230Z,101820.00
2022-08-27T11:33:20.226Z,101827.53
2022-08-27T11:38:46.812Z,101819.59
2022-08-27T11:44:10.147Z,101821.06
2022-08-27T11:49:46.269Z,101814.81
2022-08-27T11:55:16.116Z,101804.84
2022-08-27T12:00:40.954Z,101811.47
2022-08-27T12:06:20.283Z,101809.19
2022-08-27T12:11:50.682Z,101799.31
2022-08-27T12:17:24.527Z,101806.06
2022-08-27T12:23:18.217Z,101805.66
2022-08-27T12:28:41.378Z,101814.22
2022-08-27T12:34:04.910Z,101814.91
2022-08-27T12:39:32.934Z,101816.19
2022-08-27T12:44:57.329Z,101807.84
2022-08-27T12:50:26.330Z,101805.81
2022-08-27T12:56:02.117Z,101813.13
2022-08-27T13:01:43.187Z,101806.09
2022-08-27T13:07:06.686Z,101799.91
2022-08-27T13:12:31.228Z,101731.69
2022-08-27T13:17:54.433Z,101794.16
2022-08-27T13:23:20.519Z,101795.41
2022-08-27T13:28:46.054Z,101800.78
2022-08-27T13:34:09.330Z,101797.31
2022-08-27T13:39:34.280Z,101797.31
2022-08-27T13:45:03.567Z,101807.47
2022-08-27T13:50:28.762Z,101805.41
2022-08-27T13:55:52.949Z,101776.75
2022-08-27T14:01:26.257Z,101809.25
2022-08-27T14:06:49.966Z,101811.72
2022-08-27T14:12:23.293Z,101810.22
2022-08-27T14:17:57.760Z,101803.84
2022-08-27T14:23:21.182Z,101783.63
2022-08-27T14:28:44.806Z,101799.47
2022-08-27T14:34:09.445Z,101803.72
2022-08-27T14:39:33.173Z,101811.91
2022-08-27T14:44:56.508Z,101822.38
2022-08-27T14:50:21.912Z,101821.84
2022-08-27T14:55:46.765Z,101827.53
2022-08-27T15:01:15.767Z,101838.38
2022-08-27T15:06:40.439Z,101835.06
2022-08-27T15:12:04.042Z,101850.75
2022-08-27T15:17:35.195Z,101851.59
2022-08-27T15:23:00.320Z,101836.94
2022-08-27T15:28:23.453Z,101849.75
2022-08-27T15:33:46.646Z,101849.84
2022-08-27T15:39:11.173Z,101853.25
2022-08-27T15:44:34.365Z,101853.03
2022-08-27T15:49:57.751Z,101844.69
2022-08-27T15:55:25.072Z,101856.19
2022-08-27T16:00:48.602Z,101854.16
2022-08-27T16:06:24.101Z,101849.69
2022-08-27T16:11:48.930Z,101860.00
2022-08-27T16:17:12.591Z,101847.59
2022-08-27T16:22:37.402Z,101860.84
2022-08-27T16:28:01.861Z,101856.03
2022-08-27T16:33:25.536Z,101846.81
2022-08-27T16:38:48.991Z,101859.06
2022-08-27T16:44:13.710Z,101851.75
2022-08-27T16:49:50.758Z,101855.63
2022-08-27T16:55:13.962Z,101856.78
2022-08-27T17:00:39.695Z,101862.41
2022-08-27T17:06:02.895Z,101862.19
2022-08-27T17:11:28.137Z,101866.50
2022-08-27T17:16:54.209Z,101844.75
2022-08-27T17:22:17.495Z,101856.25
2022-08-27T17:27:40.604Z,101809.50
2022-08-27T17:33:05.268Z,101864.25
2022-08-27T17:38:28.444Z,101884.28
2022-08-27T17:43:52.366Z,101871.13
2022-08-27T17:49:17.622Z,101875.91
2022-08-27T17:54:43.296Z,101877.13
2022-08-27T18:00:10.315Z,101883.81
2022-08-27T18:05:34.881Z,101885.22
2022-08-27T18:10:58.066Z,101888.13
2022-08-27T18:16:21.485Z,101887.28
2022-08-27T18:21:47.114Z,101904.13
2022-08-27T18:27:10.450Z,101909.22
2022-08-27T18:32:33.757Z,101915.69
2022-08-27T18:37:58.863Z,101907.88
2022-08-27T18:43:23.153Z,101902.81
2022-08-27T18:48:46.351Z,101920.72
2022-08-27T18:54:11.319Z,101929.06
2022-08-27T18:59:34.457Z,101935.94
2022-08-27T19:04:57.727Z,101932.41
2022-08-27T19:10:22.594Z,101935.38
2022-08-27T19:15:49.579Z,101940.06
2022-08-27T19:21:12.858Z,101945.53
2022-08-27T19:26:38.087Z,101951.63
2022-08-27T19:32:01.497Z,101947.03
2022-08-27T19:37:29.243Z,101959.81
2022-08-27T19:42:53.814Z,101962.09
2022-08-27T19:48:17.440Z,101964.34
2022-08-27T19:53:40.885Z,101976.22
2022-08-27T19:59:18.968Z,101977.47
2022-08-27T20:05:01.168Z,101980.09
2022-08-27T20:10:36.186Z,101984.09
2022-08-27T20:16:01.499Z,101982.47
2022-08-27T20:21:25.042Z,101985.31
2022-08-27T20:26:48.291Z,101975.88
2022-08-27T20:32:13.709Z,101981.75
2022-08-27T20:37:41.928Z,101986.59
2022-08-27T20:43:05.485Z,101966.97
2022-08-27T20:48:30.032Z,101995.94
2022-08-27T20:53:53.584Z,101981.50
2022-08-27T20:59:34.151Z,101995.72
2022-08-27T21:04:58.954Z,101995.00
2022-08-27T21:10:22.423Z,101993.56
2022-08-27T21:15:45.665Z,101991.69
2022-08-27T21:21:10.330Z,101990.31
2022-08-27T21:26:34.228Z,102005.22
2022-08-27T21:31:57.468Z,101998.47
2022-08-27T21:37:22.081Z,102007.38
2022-08-27T21:42:45.286Z,102008.44
2022-08-27T21:48:08.662Z,102008.06
2022-08-27T21:53:33.274Z,102003.63
2022-08-27T21:58:56.531Z,101988.56
2022-08-27T22:04:19.672Z,102007.72
2022-08-27T22:09:47.756Z,102002.50
2022-08-27T22:15:14.195Z,102000.88
2022-08-27T22:20:37.880Z,102019.38
2022-08-27T22:26:03.348Z,102014.97
2022-08-27T22:31:26.780Z,102011.88
2022-08-27T22:36:50.050Z,102024.94
2022-08-27T22:42:17.631Z,102026.44
2022-08-27T22:47:41.499Z,102011.75
2022-08-27T22:53:04.722Z,102021.38
2022-08-27T22:58:29.350Z,102003.38
2022-08-27T23:03:55.010Z,102031.72
2022-08-27T23:09:18.374Z,102018.09
2022-08-27T23:14:42.975Z,102026.50
2022-08-27T23:20:07.824Z,102038.56
2022-08-27T23:25:48.710Z,102035.19
2022-08-27T23:31:13.981Z,102034.25
2022-08-27T23:36:38.285Z,102032.25
2022-08-27T23:42:02.574Z,102038.41
2022-08-27T23:47:27.091Z,102031.94
2022-08-27T23:52:50.334Z,102032.94
2022-08-27T23:58:14.964Z,102031.34
